createdAt,value
2019-06-26T00:00:49.637Z,1015.08
2019-06-26T00:01:49.646Z,1015.08
2019-06-26T00:02:49.603Z,1015.03
2019-06-26T00:03:49.595Z,1015.07
2019-06-26T00:04:49.586Z,1015.09
2019-06-26T00:05:49.614Z,1015.03
2019-06-26T00:06:49.574Z,1015.05
2019-06-26T00:07:49.548Z,1015.06
2019-06-26T00:08:49.534Z,1015.01
2019-06-26T00:09:49.536Z,1015.04
2019-06-26T00:10:49.518Z,1015.05
2019-06-26T00:11:49.516Z,1015.04
2019-06-26T00:12:49.494Z,1015.01
2019-06-26T00:13:49.482Z,1014.97
2019-06-26T00:14:49.476Z,1015.03
2019-06-26T00:15:49.463Z,1014.98
2019-06-26T00:16:49.464Z,1015.00
2019-06-26T00:17:49.442Z,1014.98
2019-06-26T00:18:49.439Z,1014.97
2019-06-26T00:19:49.419Z,1014.97
2019-06-26T00:20:49.408Z,1014.98
2019-06-26T00:21:49.415Z,1015.03
2019-06-26T00:22:49.390Z,1014.97
2019-06-26T00:23:49.390Z,1015.00
2019-06-26T00:24:49.367Z,1014.95
2019-06-26T00:25:49.358Z,1015.00
2019-06-26T00:26:49.356Z,1014.98
2019-06-26T00:27:49.336Z,1014.95
2019-06-26T00:28:49.325Z,1015.01
2019-06-26T00:29:49.323Z,1014.95
2019-06-26T00:30:49.329Z,1014.96
2019-06-26T00:31:49.304Z,1014.99
2019-06-26T00:32:49.286Z,1015.01
2019-06-26T00:33:49.279Z,1014.98
2019-06-26T00:34:49.300Z,1015.00
2019-06-26T00:35:49.251Z,1015.01
2019-06-26T00:36:49.259Z,1015.00
2019-06-26T00:37:49.230Z,1014.90
2019-06-26T00:38:49.219Z,1014.95
2019-06-26T00:39:49.208Z,1014.93
2019-06-26T00:40:49.196Z,1014.92
2019-06-26T00:41:49.198Z,1014.94
2019-06-26T00:42:49.176Z,1014.95
2019-06-26T00:43:49.177Z,1014.98
2019-06-26T00:44:49.159Z,1014.94
2019-06-26T00:45:49.148Z,1014.95
2019-06-26T00:46:49.147Z,1014.94
2019-06-26T00:47:49.122Z,1014.91
2019-06-26T00:48:49.112Z,1014.90
2019-06-26T00:49:49.126Z,1014.91
2019-06-26T00:50:49.101Z,1014.95
2019-06-26T00:51:49.095Z,1014.88
2019-06-26T00:52:49.078Z,1014.90
2019-06-26T00:53:49.079Z,1014.94
2019-06-26T00:54:49.048Z,1014.92
2019-06-26T00:55:49.039Z,1014.89
2019-06-26T00:56:49.048Z,1014.90
2019-06-26T00:57:49.017Z,1014.86
2019-06-26T00:58:49.020Z,1014.93
2019-06-26T00:59:48.996Z,1014.84
2019-06-26T01:00:48.992Z,1014.91
2019-06-26T01:01:48.979Z,1014.89
2019-06-26T01:02:48.978Z,1014.88
2019-06-26T01:03:48.956Z,1014.91
2019-06-26T01:04:49.067Z,1014.90
2019-06-26T01:05:48.933Z,1014.89
2019-06-26T01:06:48.925Z,1014.89
2019-06-26T01:07:48.923Z,1014.88
2019-06-26T01:08:48.899Z,1014.88
2019-06-26T01:09:48.892Z,1014.89
2019-06-26T01:10:48.877Z,1014.88
2019-06-26T01:11:48.874Z,1014.87
2019-06-26T01:12:48.878Z,1014.88
2019-06-26T01:13:57.625Z,1014.86
2019-06-26T01:14:49.835Z,1014.90
2019-06-26T01:15:48.839Z,1014.84
2019-06-26T01:16:48.813Z,1014.84
2019-06-26T01:17:48.813Z,1014.83
2019-06-26T01:18:48.793Z,1014.80
2019-06-26T01:19:48.786Z,1014.80
2019-06-26T01:20:48.786Z,1014.80
2019-06-26T01:21:48.766Z,1014.76
2019-06-26T01:22:48.762Z,1014.74
2019-06-26T01:23:48.742Z,1014.75
2019-06-26T01:24:48.730Z,1014.81
2019-06-26T01:25:48.721Z,1014.76
2019-06-26T01:26:48.709Z,1014.74
2019-06-26T01:27:48.712Z,1014.75
2019-06-26T01:28:48.690Z,1014.80
2019-06-26T01:29:48.677Z,1014.74
2019-06-26T01:30:48.666Z,1014.70
2019-06-26T01:31:48.694Z,1014.71
2019-06-26T01:32:48.665Z,1014.77
2019-06-26T01:33:48.639Z,1014.73
2019-06-26T01:34:48.624Z,1014.72
2019-06-26T01:35:48.615Z,1014.75
2019-06-26T01:36:48.601Z,1014.73
2019-06-26T01:37:48.602Z,1014.77
2019-06-26T01:38:48.582Z,1014.71
2019-06-26T01:39:48.573Z,1014.76
2019-06-26T01:40:48.558Z,1014.78
2019-06-26T01:41:48.552Z,1014.76
2019-06-26T01:42:48.557Z,1014.80
2019-06-26T01:43:48.527Z,1014.77
2019-06-26T01:44:48.520Z,1014.75
2019-06-26T01:45:48.508Z,1014.77
2019-06-26T01:46:48.495Z,1014.74
2019-06-26T01:47:48.498Z,1014.73
2019-06-26T01:48:48.540Z,1014.72
2019-06-26T01:49:48.465Z,1014.77
2019-06-26T01:50:48.453Z,1014.74
2019-06-26T01:51:48.446Z,1014.76
2019-06-26T01:52:48.440Z,1014.75
2019-06-26T01:53:48.421Z,1014.72
2019-06-26T01:54:48.414Z,1014.72
2019-06-26T01:55:48.438Z,1014.80
2019-06-26T01:56:48.392Z,1014.73
2019-06-26T01:57:48.390Z,1014.76
2019-06-26T01:58:48.370Z,1014.71
2019-06-26T01:59:48.359Z,1014.71
2019-06-26T02:00:48.354Z,1014.74
2019-06-26T02:01:48.336Z,1014.71
2019-06-26T02:02:48.371Z,1014.74
2019-06-26T02:03:48.313Z,1014.76
2019-06-26T02:04:48.316Z,1014.74
2019-06-26T02:05:48.307Z,1014.68
2019-06-26T02:06:48.294Z,1014.70
2019-06-26T02:07:48.287Z,1014.69
2019-06-26T02:08:48.268Z,1014.71
2019-06-26T02:09:48.344Z,1014.68
2019-06-26T02:10:48.283Z,1014.69
2019-06-26T02:11:48.237Z,1014.69
2019-06-26T02:12:48.245Z,1014.65
2019-06-26T02:13:48.213Z,1014.70
2019-06-26T02:14:48.201Z,1014.73
2019-06-26T02:15:48.188Z,1014.72
2019-06-26T02:16:48.177Z,1014.71
2019-06-26T02:17:48.199Z,1014.67
2019-06-26T02:18:48.158Z,1014.67
2019-06-26T02:19:48.145Z,1014.74
2019-06-26T02:20:48.144Z,1014.67
2019-06-26T02:21:48.126Z,1014.63
2019-06-26T02:22:49.639Z,1014.61
2019-06-26T02:23:48.113Z,1014.61
2019-06-26T02:24:48.097Z,1014.63
2019-06-26T02:25:48.083Z,1014.60
2019-06-26T02:26:48.076Z,1014.61
2019-06-26T02:27:48.067Z,1014.59
2019-06-26T02:28:48.060Z,1014.57
2019-06-26T02:29:48.041Z,1014.58
2019-06-26T02:30:48.028Z,1014.54
2019-06-26T02:31:48.016Z,1014.50
2019-06-26T02:32:48.006Z,1014.55
2019-06-26T02:33:48.009Z,1014.51
2019-06-26T02:34:47.985Z,1014.51
2019-06-26T02:35:47.979Z,1014.49
2019-06-26T02:36:47.963Z,1014.46
2019-06-26T02:37:47.956Z,1014.46
2019-06-26T02:38:47.952Z,1014.44
2019-06-26T02:39:47.932Z,1014.44
2019-06-26T02:40:47.961Z,1014.48
2019-06-26T02:41:47.920Z,1014.46
2019-06-26T02:42:47.914Z,1014.44
2019-06-26T02:43:47.923Z,1014.41
2019-06-26T02:44:53.734Z,1014.40
2019-06-26T02:45:48.874Z,1014.41
2019-06-26T02:46:47.859Z,1014.36
2019-06-26T02:47:47.848Z,1014.36
2019-06-26T02:48:47.853Z,1014.36
2019-06-26T02:49:47.827Z,1014.34
2019-06-26T02:50:47.830Z,1014.39
2019-06-26T02:51:47.810Z,1014.35
2019-06-26T02:52:47.801Z,1014.37
2019-06-26T02:53:47.822Z,1014.33
2019-06-26T02:54:47.774Z,1014.32
2019-06-26T02:55:47.766Z,1014.29
2019-06-26T02:56:47.765Z,1014.27
2019-06-26T02:57:47.762Z,1014.24
2019-06-26T02:58:47.769Z,1014.30
2019-06-26T02:59:47.734Z,1014.29
2019-06-26T03:00:47.715Z,1014.26
2019-06-26T03:01:47.704Z,1014.28
2019-06-26T03:02:47.686Z,1014.23
2019-06-26T03:03:47.677Z,1014.25
2019-06-26T03:04:47.677Z,1014.20
2019-06-26T03:05:47.742Z,1014.23
2019-06-26T03:06:47.644Z,1014.22
2019-06-26T03:07:47.635Z,1014.22
2019-06-26T03:08:47.622Z,1014.22
2019-06-26T03:09:47.625Z,1014.18
2019-06-26T03:10:47.620Z,1014.16
2019-06-26T03:11:47.638Z,1014.15
2019-06-26T03:12:47.579Z,1014.19
2019-06-26T03:13:47.572Z,1014.19
2019-06-26T03:14:47.571Z,1014.20
2019-06-26T03:15:50.493Z,1014.21
2019-06-26T03:16:47.555Z,1014.24
2019-06-26T03:17:55.493Z,1014.24
2019-06-26T03:18:48.514Z,1014.20
2019-06-26T03:19:47.520Z,1014.21
2019-06-26T03:20:47.494Z,1014.19
2019-06-26T03:21:47.491Z,1014.24
2019-06-26T03:22:47.480Z,1014.28
2019-06-26T03:23:47.466Z,1014.20
2019-06-26T03:24:47.465Z,1014.18
2019-06-26T03:25:47.446Z,1014.21
2019-06-26T03:26:47.432Z,1014.27
2019-06-26T03:27:47.424Z,1014.24
2019-06-26T03:28:47.414Z,1014.31
2019-06-26T03:29:47.414Z,1014.34
2019-06-26T03:30:47.424Z,1014.29
2019-06-26T03:31:47.381Z,1014.29
2019-06-26T03:32:47.379Z,1014.31
2019-06-26T03:33:47.369Z,1014.29
2019-06-26T03:34:47.360Z,1014.30
2019-06-26T03:35:47.338Z,1014.25
2019-06-26T03:36:47.327Z,1014.31
2019-06-26T03:37:47.318Z,1014.36
2019-06-26T03:38:47.305Z,1014.33
2019-06-26T03:39:47.299Z,1014.39
2019-06-26T03:40:47.302Z,1014.35
2019-06-26T03:41:47.280Z,1014.42
2019-06-26T03:42:47.265Z,1014.42
2019-06-26T03:43:47.253Z,1014.40
2019-06-26T03:44:47.242Z,1014.32
2019-06-26T03:45:47.301Z,1014.37
2019-06-26T03:46:47.224Z,1014.42
2019-06-26T03:47:47.210Z,1014.36
2019-06-26T03:48:47.200Z,1014.39
2019-06-26T03:49:47.206Z,1014.40
2019-06-26T03:50:47.195Z,1014.41
2019-06-26T03:51:47.177Z,1014.43
2019-06-26T03:52:47.159Z,1014.44
2019-06-26T03:53:47.152Z,1014.47
2019-06-26T03:54:47.139Z,1014.45
2019-06-26T03:55:47.144Z,1014.46
2019-06-26T03:56:47.117Z,1014.45
2019-06-26T03:57:47.105Z,1014.48
2019-06-26T03:58:47.094Z,1014.52
2019-06-26T03:59:56.260Z,1014.50
2019-06-26T04:00:55.875Z,1014.48
2019-06-26T04:01:56.313Z,1014.53
2019-06-26T04:02:56.368Z,1014.47
2019-06-26T04:03:57.480Z,1014.53
2019-06-26T04:04:47.037Z,1014.53
2019-06-26T04:05:55.929Z,1014.51
2019-06-26T04:06:56.426Z,1014.55
2019-06-26T04:07:56.447Z,1014.52
2019-06-26T04:08:57.459Z,1014.55
2019-06-26T04:09:56.460Z,1014.56
2019-06-26T04:10:55.540Z,1014.57
2019-06-26T04:11:56.049Z,1014.60
2019-06-26T04:12:46.957Z,1014.58
2019-06-26T04:13:56.095Z,1014.60
2019-06-26T04:14:46.929Z,1014.61
2019-06-26T04:15:50.693Z,1014.59
2019-06-26T04:16:46.919Z,1014.59
2019-06-26T04:17:46.894Z,1014.61
2019-06-26T04:18:46.883Z,1014.61
2019-06-26T04:19:46.895Z,1014.61
2019-06-26T04:20:46.864Z,1014.62
2019-06-26T04:21:46.863Z,1014.63
2019-06-26T04:22:47.750Z,1014.64
2019-06-26T04:23:46.829Z,1014.65
2019-06-26T04:24:46.820Z,1014.64
2019-06-26T04:25:46.808Z,1014.66
2019-06-26T04:26:46.809Z,1014.62
2019-06-26T04:27:46.834Z,1014.68
2019-06-26T04:28:46.783Z,1014.67
2019-06-26T04:29:46.763Z,1014.69
2019-06-26T04:30:46.759Z,1014.70
2019-06-26T04:31:46.753Z,1014.70
2019-06-26T04:32:46.748Z,1014.64
2019-06-26T04:33:46.724Z,1014.65
2019-06-26T04:34:46.712Z,1014.66
2019-06-26T04:35:46.702Z,1014.65
2019-06-26T04:36:46.718Z,1014.61
2019-06-26T04:37:46.687Z,1014.63
2019-06-26T04:38:46.676Z,1014.62
2019-06-26T04:39:46.669Z,1014.63
2019-06-26T04:40:46.654Z,1014.63
2019-06-26T04:41:46.660Z,1014.65
2019-06-26T04:42:46.648Z,1014.63
2019-06-26T04:43:46.643Z,1014.63
2019-06-26T04:44:46.615Z,1014.57
2019-06-26T04:45:57.775Z,1014.65
2019-06-26T04:46:47.595Z,1014.56
2019-06-26T04:47:46.575Z,1014.63
2019-06-26T04:48:46.576Z,1014.64
2019-06-26T04:49:46.572Z,1014.63
2019-06-26T04:50:46.558Z,1014.58
2019-06-26T04:51:46.833Z,1014.65
2019-06-26T04:52:46.554Z,1014.63
2019-06-26T04:53:46.513Z,1014.59
2019-06-26T04:54:46.505Z,1014.68
2019-06-26T04:55:46.498Z,1014.62
2019-06-26T04:56:46.504Z,1014.61
2019-06-26T04:57:46.567Z,1014.63
2019-06-26T04:58:46.461Z,1014.65
2019-06-26T04:59:46.462Z,1014.63
2019-06-26T05:00:46.467Z,1014.64
2019-06-26T05:01:46.436Z,1014.54
2019-06-26T05:02:46.444Z,1014.57
2019-06-26T05:03:46.407Z,1014.60
2019-06-26T05:04:46.432Z,1014.59
2019-06-26T05:05:46.391Z,1014.61
2019-06-26T05:06:46.438Z,1014.60
2019-06-26T05:07:46.379Z,1014.63
2019-06-26T05:08:46.356Z,1014.65
2019-06-26T05:09:46.345Z,1014.66
2019-06-26T05:10:46.350Z,1014.59
2019-06-26T05:11:46.323Z,1014.58
2019-06-26T05:12:46.329Z,1014.59
2019-06-26T05:13:46.312Z,1014.56
2019-06-26T05:14:46.300Z,1014.56
2019-06-26T05:15:46.287Z,1014.58
2019-06-26T05:16:46.271Z,1014.56
2019-06-26T05:17:46.273Z,1014.51
2019-06-26T05:18:46.284Z,1014.55
2019-06-26T05:19:46.247Z,1014.54
2019-06-26T05:20:46.232Z,1014.54
2019-06-26T05:21:46.225Z,1014.51
2019-06-26T05:22:46.252Z,1014.64
2019-06-26T05:23:46.200Z,1014.58
2019-06-26T05:24:46.616Z,1014.57
2019-06-26T05:25:46.187Z,1014.56
2019-06-26T05:26:46.168Z,1014.60
2019-06-26T05:27:46.189Z,1014.58
2019-06-26T05:28:46.148Z,1014.59
2019-06-26T05:29:46.216Z,1014.54
2019-06-26T05:30:46.131Z,1014.58
2019-06-26T05:31:46.132Z,1014.60
2019-06-26T05:32:46.116Z,1014.61
2019-06-26T05:33:46.119Z,1014.56
2019-06-26T05:34:46.090Z,1014.57
2019-06-26T05:35:46.083Z,1014.59
2019-06-26T05:36:46.097Z,1014.59
2019-06-26T05:37:46.063Z,1014.60
2019-06-26T05:38:55.707Z,1014.65
2019-06-26T05:39:46.057Z,1014.68
2019-06-26T05:40:46.013Z,1014.60
2019-06-26T05:41:46.005Z,1014.62
2019-06-26T05:42:45.993Z,1014.57
2019-06-26T05:43:46.127Z,1014.59
2019-06-26T05:44:46.005Z,1014.55
2019-06-26T05:45:55.155Z,1014.59
2019-06-26T05:46:45.949Z,1014.61
2019-06-26T05:47:45.940Z,1014.61
2019-06-26T05:48:45.937Z,1014.58
2019-06-26T05:49:45.957Z,1014.58
2019-06-26T05:50:45.912Z,1014.63
2019-06-26T05:51:45.900Z,1014.59
2019-06-26T05:52:45.888Z,1014.65
2019-06-26T05:53:45.886Z,1014.58
2019-06-26T05:54:45.883Z,1014.61
2019-06-26T05:55:45.856Z,1014.59
2019-06-26T05:56:45.846Z,1014.65
2019-06-26T05:57:48.431Z,1014.64
2019-06-26T05:58:45.832Z,1014.63
2019-06-26T05:59:45.818Z,1014.65
2019-06-26T06:00:45.803Z,1014.64
2019-06-26T06:01:45.801Z,1014.63
2019-06-26T06:02:45.853Z,1014.65
2019-06-26T06:03:45.779Z,1014.65
2019-06-26T06:04:45.763Z,1014.66
2019-06-26T06:05:45.752Z,1014.63
2019-06-26T06:06:45.740Z,1014.64
2019-06-26T06:07:45.733Z,1014.59
2019-06-26T06:08:45.799Z,1014.54
2019-06-26T06:09:45.712Z,1014.57
2019-06-26T06:10:45.732Z,1014.60
2019-06-26T06:11:45.752Z,1014.63
2019-06-26T06:12:45.779Z,1014.60
2019-06-26T06:13:45.673Z,1014.64
2019-06-26T06:14:45.681Z,1014.64
2019-06-26T06:15:45.648Z,1014.71
2019-06-26T06:16:47.788Z,1014.69
2019-06-26T06:17:45.663Z,1014.66
2019-06-26T06:18:45.626Z,1014.70
2019-06-26T06:19:45.838Z,1014.70
2019-06-26T06:20:45.601Z,1014.60
2019-06-26T06:21:45.591Z,1014.66
2019-06-26T06:22:45.574Z,1014.66
2019-06-26T06:23:45.574Z,1014.68
2019-06-26T06:24:45.566Z,1014.69
2019-06-26T06:25:45.545Z,1014.72
2019-06-26T06:26:45.532Z,1014.69
2019-06-26T06:27:45.521Z,1014.72
2019-06-26T06:28:45.513Z,1014.71
2019-06-26T06:29:45.515Z,1014.70
2019-06-26T06:30:45.509Z,1014.63
2019-06-26T06:31:45.482Z,1014.76
2019-06-26T06:32:45.469Z,1014.70
2019-06-26T06:33:45.460Z,1014.67
2019-06-26T06:34:45.457Z,1014.73
2019-06-26T06:35:45.440Z,1014.72
2019-06-26T06:36:45.429Z,1014.74
2019-06-26T06:37:45.423Z,1014.71
2019-06-26T06:38:45.422Z,1014.72
2019-06-26T06:39:45.405Z,1014.72
2019-06-26T06:40:45.423Z,1014.76
2019-06-26T06:41:45.380Z,1014.71
2019-06-26T06:42:45.373Z,1014.77
2019-06-26T06:43:45.359Z,1014.77
2019-06-26T06:44:45.703Z,1014.77
2019-06-26T06:45:45.332Z,1014.79
2019-06-26T06:46:45.323Z,1014.79
2019-06-26T06:47:45.311Z,1014.84
2019-06-26T06:48:45.302Z,1014.80
2019-06-26T06:49:45.361Z,1014.85
2019-06-26T06:50:45.320Z,1014.87
2019-06-26T06:51:45.274Z,1014.85
2019-06-26T06:52:45.265Z,1014.88
2019-06-26T06:53:45.252Z,1014.82
2019-06-26T06:54:45.262Z,1014.83
2019-06-26T06:55:45.245Z,1014.81
2019-06-26T06:56:45.227Z,1014.84
2019-06-26T06:57:45.211Z,1014.82
2019-06-26T06:58:45.273Z,1014.82
2019-06-26T06:59:45.193Z,1014.82
2019-06-26T07:00:45.223Z,1014.84
2019-06-26T07:01:45.168Z,1014.82
2019-06-26T07:02:45.209Z,1014.85
2019-06-26T07:03:45.148Z,1014.85
2019-06-26T07:04:45.170Z,1014.87
2019-06-26T07:05:45.135Z,1014.84
2019-06-26T07:06:45.126Z,1014.88
2019-06-26T07:07:45.107Z,1014.89
2019-06-26T07:08:45.095Z,1014.88
2019-06-26T07:09:45.085Z,1014.87
2019-06-26T07:10:45.086Z,1014.90
2019-06-26T07:11:45.065Z,1014.91
2019-06-26T07:12:45.059Z,1014.93
2019-06-26T07:13:45.048Z,1014.91
2019-06-26T07:14:45.042Z,1014.88
2019-06-26T07:15:45.040Z,1014.86
2019-06-26T07:16:45.030Z,1014.86
2019-06-26T07:17:45.011Z,1014.86
2019-06-26T07:18:45.001Z,1014.88
2019-06-26T07:19:44.985Z,1014.84
2019-06-26T07:20:44.982Z,1014.87
2019-06-26T07:21:44.962Z,1014.84
2019-06-26T07:22:44.950Z,1014.84
2019-06-26T07:23:45.010Z,1014.82
2019-06-26T07:24:44.980Z,1014.83
2019-06-26T07:25:44.932Z,1014.89
2019-06-26T07:26:44.913Z,1014.87
2019-06-26T07:27:44.905Z,1014.81
2019-06-26T07:28:44.909Z,1014.83
2019-06-26T07:29:44.879Z,1014.86
2019-06-26T07:30:44.872Z,1014.78
2019-06-26T07:31:44.869Z,1014.85
2019-06-26T07:32:44.847Z,1014.83
2019-06-26T07:33:44.863Z,1014.86
2019-06-26T07:34:44.835Z,1014.89
2019-06-26T07:35:44.820Z,1014.87
2019-06-26T07:36:44.819Z,1014.88
2019-06-26T07:37:44.809Z,1014.90
2019-06-26T07:38:44.791Z,1014.91
2019-06-26T07:39:44.781Z,1014.94
2019-06-26T07:40:44.774Z,1014.86
2019-06-26T07:41:44.775Z,1014.92
2019-06-26T07:42:44.748Z,1014.93
2019-06-26T07:43:44.741Z,1014.96
2019-06-26T07:44:44.725Z,1014.95
2019-06-26T07:45:44.715Z,1014.95
2019-06-26T07:46:44.713Z,1014.96
2019-06-26T07:47:44.701Z,1014.90
2019-06-26T07:48:44.753Z,1014.94
2019-06-26T07:49:44.676Z,1014.92
2019-06-26T07:50:44.663Z,1014.94
2019-06-26T07:51:44.665Z,1014.93
2019-06-26T07:52:44.655Z,1014.95
2019-06-26T07:53:44.637Z,1015.00
2019-06-26T07:54:44.624Z,1014.97
2019-06-26T07:55:44.616Z,1015.01
2019-06-26T07:56:44.633Z,1014.92
2019-06-26T07:57:44.592Z,1014.92
2019-06-26T07:58:44.584Z,1014.89
2019-06-26T07:59:44.587Z,1014.94
2019-06-26T08:00:44.564Z,1014.90
2019-06-26T08:01:45.222Z,1014.95
2019-06-26T08:02:44.559Z,1014.97
2019-06-26T08:03:44.533Z,1015.04
2019-06-26T08:04:44.535Z,1015.04
2019-06-26T08:05:44.514Z,1015.07
2019-06-26T08:06:44.519Z,1015.06
2019-06-26T08:07:44.508Z,1015.10
2019-06-26T08:08:44.515Z,1015.08
2019-06-26T08:09:44.477Z,1015.08
2019-06-26T08:10:44.461Z,1015.08
2019-06-26T08:11:44.490Z,1015.08
2019-06-26T08:12:44.483Z,1015.07
2019-06-26T08:13:44.438Z,1015.03
2019-06-26T08:14:44.420Z,1015.06
2019-06-26T08:15:44.455Z,1015.06
2019-06-26T08:16:44.416Z,1015.03
2019-06-26T08:17:59.396Z,1015.05
2019-06-26T08:18:45.381Z,1015.06
2019-06-26T08:19:44.372Z,1015.08
2019-06-26T08:21:00.412Z,1015.07
2019-06-26T08:21:46.779Z,1015.02
2019-06-26T08:22:44.349Z,1015.07
2019-06-26T08:23:44.328Z,1015.11
2019-06-26T08:24:44.318Z,1015.06
2019-06-26T08:25:44.312Z,1015.02
2019-06-26T08:26:44.298Z,1015.10
2019-06-26T08:27:44.375Z,1015.09
2019-06-26T08:28:44.287Z,1015.08
2019-06-26T08:29:44.268Z,1015.12
2019-06-26T08:30:44.273Z,1015.11
2019-06-26T08:31:44.248Z,1015.13
2019-06-26T08:32:44.248Z,1015.14
2019-06-26T08:33:44.234Z,1015.11
2019-06-26T08:34:44.218Z,1015.11
2019-06-26T08:35:44.209Z,1015.12
2019-06-26T08:36:44.197Z,1015.12
2019-06-26T08:37:44.200Z,1015.08
2019-06-26T08:38:44.176Z,1015.07
2019-06-26T08:39:44.169Z,1015.12
2019-06-26T08:40:44.170Z,1015.14
2019-06-26T08:41:44.149Z,1015.13
2019-06-26T08:42:44.146Z,1015.13
2019-06-26T08:43:44.129Z,1015.15
2019-06-26T08:44:44.224Z,1015.10
2019-06-26T08:45:44.108Z,1015.13
2019-06-26T08:46:44.100Z,1015.15
2019-06-26T08:47:44.107Z,1015.13
2019-06-26T08:48:44.078Z,1015.14
2019-06-26T08:49:46.735Z,1015.14
2019-06-26T08:50:44.064Z,1015.14
2019-06-26T08:51:44.047Z,1015.18
2019-06-26T08:52:44.047Z,1015.12
2019-06-26T08:53:44.026Z,1015.18
2019-06-26T08:54:44.028Z,1015.19
2019-06-26T08:55:44.007Z,1015.16
2019-06-26T08:56:43.999Z,1015.17
2019-06-26T08:57:44.062Z,1015.22
2019-06-26T08:58:43.978Z,1015.20
2019-06-26T08:59:43.968Z,1015.19
2019-06-26T09:00:43.957Z,1015.12
2019-06-26T09:01:43.948Z,1015.19
2019-06-26T09:02:43.949Z,1015.21
2019-06-26T09:03:43.927Z,1015.22
2019-06-26T09:04:43.919Z,1015.18
2019-06-26T09:05:48.547Z,1015.16
2019-06-26T09:06:43.900Z,1015.12
2019-06-26T09:07:43.895Z,1015.16
2019-06-26T09:08:43.876Z,1015.11
2019-06-26T09:09:43.866Z,1015.16
2019-06-26T09:10:45.098Z,1015.19
2019-06-26T09:11:43.845Z,1015.17
2019-06-26T09:12:43.878Z,1015.15
2019-06-26T09:13:43.827Z,1015.18
2019-06-26T09:14:43.817Z,1015.22
2019-06-26T09:15:43.815Z,1015.17
2019-06-26T09:16:43.805Z,1015.18
2019-06-26T09:17:44.005Z,1015.19
2019-06-26T09:18:43.807Z,1015.15
2019-06-26T09:19:43.766Z,1015.18
2019-06-26T09:20:43.781Z,1015.22
2019-06-26T09:21:43.746Z,1015.24
2019-06-26T09:22:43.736Z,1015.23
2019-06-26T09:23:43.821Z,1015.19
2019-06-26T09:24:43.714Z,1015.16
2019-06-26T09:25:43.706Z,1015.21
2019-06-26T09:26:43.705Z,1015.18
2019-06-26T09:27:43.684Z,1015.16
2019-06-26T09:28:43.687Z,1015.18
2019-06-26T09:29:43.667Z,1015.16
2019-06-26T09:30:43.660Z,1015.19
2019-06-26T09:31:43.650Z,1015.17
2019-06-26T09:32:43.649Z,1015.14
2019-06-26T09:33:43.636Z,1015.15
2019-06-26T09:34:43.636Z,1015.13
2019-06-26T09:35:43.607Z,1015.13
2019-06-26T09:36:43.617Z,1015.13
2019-06-26T09:37:43.591Z,1015.12
2019-06-26T09:38:43.586Z,1015.12
2019-06-26T09:39:43.566Z,1015.13
2019-06-26T09:40:43.566Z,1015.12
2019-06-26T09:41:43.546Z,1015.14
2019-06-26T09:42:43.538Z,1015.12
2019-06-26T09:43:43.539Z,1015.10
2019-06-26T09:44:43.531Z,1015.13
2019-06-26T09:45:43.506Z,1015.17
2019-06-26T09:46:43.497Z,1015.10
2019-06-26T09:47:43.487Z,1015.09
2019-06-26T09:48:52.852Z,1015.10
2019-06-26T09:49:44.503Z,1015.09
2019-06-26T09:50:43.461Z,1015.04
2019-06-26T09:51:43.446Z,1015.08
2019-06-26T09:52:43.443Z,1015.08
2019-06-26T09:53:47.629Z,1014.98
2019-06-26T09:54:43.418Z,1015.00
2019-06-26T09:55:43.411Z,1014.99
2019-06-26T09:56:43.400Z,1015.05
2019-06-26T09:57:43.409Z,1015.02
2019-06-26T09:58:43.397Z,1015.04
2019-06-26T09:59:43.377Z,1015.07
2019-06-26T10:00:43.359Z,1015.02
2019-06-26T10:01:43.349Z,1015.05
2019-06-26T10:02:43.337Z,1015.01
2019-06-26T10:03:45.230Z,1015.01
2019-06-26T10:04:44.246Z,1015.07
2019-06-26T10:05:43.308Z,1015.06
2019-06-26T10:06:43.297Z,1015.00
2019-06-26T10:07:43.302Z,1015.01
2019-06-26T10:08:43.292Z,1015.01
2019-06-26T10:09:43.277Z,1015.03
2019-06-26T10:10:43.258Z,1015.05
2019-06-26T10:11:43.248Z,1014.98
2019-06-26T10:12:43.247Z,1015.04
2019-06-26T10:13:43.238Z,1015.04
2019-06-26T10:14:47.834Z,1015.02
2019-06-26T10:15:43.208Z,1014.98
2019-06-26T10:16:43.201Z,1015.01
2019-06-26T10:17:43.192Z,1015.01
2019-06-26T10:18:43.188Z,1015.02
2019-06-26T10:19:43.171Z,1014.98
2019-06-26T10:20:43.173Z,1014.96
2019-06-26T10:21:43.155Z,1014.98
2019-06-26T10:22:43.169Z,1014.99
2019-06-26T10:23:43.186Z,1014.97
2019-06-26T10:24:43.122Z,1014.96
2019-06-26T10:25:43.115Z,1014.86
2019-06-26T10:26:43.101Z,1014.87
2019-06-26T10:27:43.103Z,1014.87
2019-06-26T10:28:43.094Z,1014.83
2019-06-26T10:29:43.071Z,1014.81
2019-06-26T10:30:43.061Z,1014.79
2019-06-26T10:31:43.054Z,1014.79
2019-06-26T10:32:43.044Z,1014.79
2019-06-26T10:33:43.049Z,1014.85
2019-06-26T10:34:43.022Z,1014.89
2019-06-26T10:35:43.012Z,1014.90
2019-06-26T10:36:43.004Z,1014.97
2019-06-26T10:37:42.991Z,1014.97
2019-06-26T10:38:42.989Z,1014.92
2019-06-26T10:39:42.981Z,1014.95
2019-06-26T10:40:43.008Z,1014.92
2019-06-26T10:41:42.967Z,1014.90
2019-06-26T10:42:42.944Z,1014.89
2019-06-26T10:43:42.960Z,1014.87
2019-06-26T10:44:42.951Z,1014.82
2019-06-26T10:45:42.919Z,1014.90
2019-06-26T10:46:42.905Z,1014.83
2019-06-26T10:47:42.891Z,1014.86
2019-06-26T10:48:42.882Z,1014.81
2019-06-26T10:49:42.882Z,1014.81
2019-06-26T10:50:49.356Z,1014.83
2019-06-26T10:51:43.854Z,1014.85
2019-06-26T10:52:42.846Z,1014.80
2019-06-26T10:53:42.859Z,1014.76
2019-06-26T10:54:44.511Z,1014.73
2019-06-26T10:55:42.812Z,1014.76
2019-06-26T10:56:42.810Z,1014.75
2019-06-26T10:57:42.795Z,1014.75
2019-06-26T10:58:42.786Z,1014.69
2019-06-26T10:59:42.783Z,1014.66
2019-06-26T11:00:42.777Z,1014.70
2019-06-26T11:01:42.754Z,1014.66
2019-06-26T11:02:42.745Z,1014.71
2019-06-26T11:03:42.737Z,1014.68
2019-06-26T11:04:42.741Z,1014.71
2019-06-26T11:05:42.717Z,1014.67
2019-06-26T11:06:42.709Z,1014.59
2019-06-26T11:07:42.694Z,1014.57
2019-06-26T11:08:42.693Z,1014.51
2019-06-26T11:09:42.817Z,1014.53
2019-06-26T11:10:42.669Z,1014.48
2019-06-26T11:11:42.690Z,1014.49
2019-06-26T11:12:42.648Z,1014.56
2019-06-26T11:13:42.642Z,1014.56
2019-06-26T11:14:42.635Z,1014.60
2019-06-26T11:15:42.616Z,1014.56
2019-06-26T11:16:42.609Z,1014.50
2019-06-26T11:17:42.615Z,1014.46
2019-06-26T11:18:42.683Z,1014.47
2019-06-26T11:19:44.493Z,1014.51
2019-06-26T11:20:42.572Z,1014.49
2019-06-26T11:21:42.563Z,1014.55
2019-06-26T11:22:42.549Z,1014.47
2019-06-26T11:23:42.538Z,1014.46
2019-06-26T11:24:42.579Z,1014.51
2019-06-26T11:25:44.494Z,1014.50
2019-06-26T11:26:42.511Z,1014.44
2019-06-26T11:27:42.519Z,1014.41
2019-06-26T11:28:42.496Z,1014.44
2019-06-26T11:29:42.492Z,1014.41
2019-06-26T11:30:42.469Z,1014.43
2019-06-26T11:31:42.460Z,1014.36
2019-06-26T11:32:42.452Z,1014.32
2019-06-26T11:33:42.440Z,1014.40
2019-06-26T11:34:42.441Z,1014.45
2019-06-26T11:35:42.421Z,1014.36
2019-06-26T11:36:42.413Z,1014.31
2019-06-26T11:37:42.401Z,1014.31
2019-06-26T11:38:42.392Z,1014.36
2019-06-26T11:39:42.394Z,1014.35
2019-06-26T11:40:42.383Z,1014.26
2019-06-26T11:41:42.395Z,1014.35
2019-06-26T11:42:42.356Z,1014.32
2019-06-26T11:43:42.348Z,1014.22
2019-06-26T11:44:42.348Z,1014.25
2019-06-26T11:45:42.324Z,1014.16
2019-06-26T11:46:51.361Z,1014.25
2019-06-26T11:47:45.545Z,1014.17
2019-06-26T11:48:42.297Z,1014.16
2019-06-26T11:49:42.326Z,1014.22
2019-06-26T11:50:42.295Z,1014.28
2019-06-26T11:51:42.280Z,1014.20
2019-06-26T11:52:42.275Z,1014.22
2019-06-26T11:53:42.243Z,1014.23
2019-06-26T11:54:42.235Z,1014.25
2019-06-26T11:55:42.242Z,1014.29
2019-06-26T11:56:42.215Z,1014.22
2019-06-26T11:57:42.204Z,1014.20
2019-06-26T11:58:42.212Z,1014.18
2019-06-26T11:59:42.185Z,1014.23
2019-06-26T12:00:42.185Z,1014.26
2019-06-26T12:01:42.227Z,1014.29
2019-06-26T12:02:42.162Z,1014.23
2019-06-26T12:03:42.150Z,1014.35
2019-06-26T12:04:42.136Z,1014.33
2019-06-26T12:05:42.137Z,1014.33